Wichita, KS (67212)

10:21 PM CDT on August 23, 2016 (GMT -0500)
WestLink 19th | | Change Station

Elev 1354 ft 37.69 °N, 97.47 °W | Updated 9 seconds ago

Mostly Cloudy
Mostly Cloudy
81.7 °F
Feels Like 87 °F
N
3.0
Wind Variable Wind from SE
Gusts 4.6 mph

Today
High -- | Low -- °F
--% Chance of Precip.
Yesterday
High -- | Low -- °F
Precip. -- in
Pressure 29.86 in
Visibility 10.0 miles
Clouds Scattered Clouds 16000 ft
Mostly Cloudy 20000 ft
Mostly Cloudy 25000 ft
Heat Index 87 °F
Dew Point 73 °F
Humidity 75%
Rainfall 0.00 in
Snow Depth Not available.
6:52 AM 8:11 PM
Waning Gibbous, 62% visible
METAR KICT 240253Z 17011KT 10SM SCT160 BKN200 BKN250 28/22 A2991 RMK AO2 SLP111 T02830217 53008
Pressure 29.86 in
Visibility 10.0 miles
Clouds Scattered Clouds 16000 ft
Mostly Cloudy 20000 ft
Mostly Cloudy 25000 ft
Heat Index 87 °F
Dew Point 73 °F
Humidity 75%
Rainfall 0.00 in
Snow Depth Not available.
6:52 AM 8:11 PM
Waning Gibbous, 62% visible
METAR KICT 240253Z 17011KT 10SM SCT160 BKN200 BKN250 28/22 A2991 RMK AO2 SLP111 T02830217 53008

10-Day Weather Forecast

Almanac

Astronomy

Aug. 23, 2016 Rise Set
Actual Time
Civil Twilight
Nautical Twilight
Astronomical Twilight
Moon
Length of Visible Light
Length of Day
Tomorrow will be .
, % of the Moon is Illuminated

Today's Extremes

State Highs State Lows

Community

WunderPhotos

Upload Photos

1,934,541 photos uploaded!

WunderBlog® & News

Nearby

Air Quality

  Air Quality AQ Index Pollutant
Not available.

Snow Depth

Station Depth Elevation

Earthquake Activity

City Distance Mag. Time & Date
Minimum magnitude displayed is 2.5.

Coastal Water Temperatures

Place Temperature

Stations

Nearby Weather Stations

Station Location Temp. Windchill Dew Point Humidity Wind Precip. Elev Updated Type
                   

Watches & Warnings

There are currently no watches in effect.